Time;durP1;ratioP1;P1;durP2;ratioP2;P2;SDS_P1;SDS_P2;PMS_P1;PMS_P2;Temp;Humidity;BMP_temperature;BMP_pressure;BME280_temperature;BME280_humidity;BME280_pressure;Samples;Min_cycle;Max_cycle;Signal;HPM_P1;HPM_P2
2022/03/07 00:01:25;;;;;;;;;;;;;;;0.21;44.74;96834.91;5008720;28;19957;-72
2022/03/07 00:03:52;;;;;;;;;;;;;;;0.22;44.82;96838.28;5007539;28;19961;-72
2022/03/07 00:06:17;;;;;;;;;;;;;;;0.21;44.70;96834.91;5006464;28;20036;-72
2022/03/07 00:08:43;;;;;;;;;;;;;;;0.17;45.10;96833.56;5006815;28;20460;-71
2022/03/07 00:11:09;;;;;;;;;;;;;;;0.10;44.94;96832.50;5004422;28;20005;-71
2022/03/07 00:13:35;;;;;;;;;;;;;;;0.08;44.75;96831.81;5003597;28;20001;-72
2022/03/07 00:16:02;;;;;;;;;;;;;;;0.09;45.49;96833.47;5007227;28;20017;-71
2022/03/07 00:18:28;;;;;;;;;;;;;;;0.10;45.54;96832.50;5013669;28;19952;-74
2022/03/07 00:20:55;;;;;;;;;;;;;;;0.09;45.22;96836.84;5007259;28;20388;-72
2022/03/07 00:23:21;;;;;;;;;;;;;;;0.08;45.66;96837.78;5007625;28;19964;-71
2022/03/07 00:25:47;;;;;;;;;;;;;;;0.06;45.75;96839.69;5004350;28;19965;-72
2022/03/07 00:28:14;;;;;;;;;;;;;;;0.08;45.68;96839.56;5011189;28;19952;-71
2022/03/07 00:30:40;;;;;;;;;;;;;;;0.10;45.66;96838.47;5006415;28;19953;-71
2022/03/07 00:33:06;;;;;;;;;;;;;;;0.10;45.41;96828.13;4987173;28;19952;-71
2022/03/07 00:35:32;;;;;;;;;;;;;;;0.10;45.30;96833.31;5006447;28;19965;-71
2022/03/07 00:37:58;;;;;;;;;;;;;;;0.11;44.94;96831.56;5011981;28;19956;-71
2022/03/07 00:40:24;;;;;;;;;;;;;;;0.03;45.32;96831.44;5000760;28;20070;-71
2022/03/07 00:42:50;;;;;;;;;;;;;;;-0.03;45.54;96832.81;5003483;28;20409;-71
2022/03/07 00:45:16;;;;;;;;;;;;;;;-0.07;45.00;96834.06;5006165;28;20023;-72
2022/03/07 00:47:41;;;;;;;;;;;;;;;-0.10;45.92;96829.19;5007410;28;20013;-73
2022/03/07 00:50:08;;;;;;;;;;;;;;;-0.10;46.17;96836.94;5009469;28;20015;-73
2022/03/07 00:52:33;;;;;;;;;;;;;;;-0.13;46.31;96834.63;5005594;28;20423;-73
2022/03/07 00:54:59;;;;;;;;;;;;;;;-0.10;46.59;96836.94;5001472;28;20008;-72
2022/03/07 00:57:25;;;;;;;;;;;;;;;-0.09;46.11;96833.38;5015441;28;20458;-73
2022/03/07 00:59:51;;;;;;;;;;;;;;;-0.09;46.43;96833.38;5008088;28;20349;-72
2022/03/07 01:02:18;;;;;;;;;;;;;;;-0.11;46.06;96827.56;5006379;28;19947;-72
2022/03/07 01:04:44;;;;;;;;;;;;;;;-0.14;46.84;96830.44;5004066;28;19957;-72
2022/03/07 01:07:10;;;;;;;;;;;;;;;-0.16;46.00;96827.19;5010604;28;20001;-73
2022/03/07 01:09:36;;;;;;;;;;;;;;;-0.20;46.58;96826.66;4984549;28;19950;-73
2022/03/07 01:12:02;;;;;;;;;;;;;;;-0.18;46.33;96821.34;4987467;28;19958;-72
2022/03/07 01:14:28;;;;;;;;;;;;;;;-0.21;47.26;96819.84;5008652;28;19959;-73
2022/03/07 01:16:53;;;;;;;;;;;;;;;-0.23;46.92;96819.22;5005854;28;19954;-73
2022/03/07 01:19:19;;;;;;;;;;;;;;;-0.24;47.22;96830.47;5005269;28;20459;-73
2022/03/07 01:21:45;;;;;;;;;;;;;;;-0.28;46.50;96831.69;4999416;28;21112;-73
2022/03/07 01:24:11;;;;;;;;;;;;;;;-0.35;46.79;96828.88;5004652;28;19961;-73
2022/03/07 01:26:38;;;;;;;;;;;;;;;-0.40;47.02;96825.88;5004086;28;19973;-72
2022/03/07 01:29:04;;;;;;;;;;;;;;;-0.44;47.71;96829.72;5009723;28;20309;-72
2022/03/07 01:31:30;;;;;;;;;;;;;;;-0.46;47.35;96829.84;5004052;28;19952;-72
2022/03/07 01:33:56;;;;;;;;;;;;;;;-0.49;47.47;96822.38;5001429;28;19996;-72
2022/03/07 01:36:22;;;;;;;;;;;;;;;-0.49;47.74;96824.94;5005156;28;19960;-72
2022/03/07 01:38:48;;;;;;;;;;;;;;;-0.45;48.32;96822.91;5006868;28;19947;-72
2022/03/07 01:41:14;;;;;;;;;;;;;;;-0.40;48.58;96823.28;5007795;28;19949;-73
2022/03/07 01:43:40;;;;;;;;;;;;;;;-0.37;47.84;96812.72;5005209;28;19954;-72
2022/03/07 01:46:08;;;;;;;;;;;;;;;-0.36;48.39;96831.56;4996978;28;20345;-72
2022/03/07 01:48:35;;;;;;;;;;;;;;;-0.37;48.10;96825.59;5015380;28;19952;-72
2022/03/07 01:51:01;;;;;;;;;;;;;;;-0.36;48.29;96819.50;5015077;28;20315;-72
2022/03/07 01:53:27;;;;;;;;;;;;;;;-0.36;48.52;96813.53;5015096;28;20041;-72
2022/03/07 01:55:54;;;;;;;;;;;;;;;-0.38;48.08;96808.50;5015272;28;20044;-72
2022/03/07 01:58:20;;;;;;;;;;;;;;;-0.38;48.52;96811.09;5015026;28;19955;-72
2022/03/07 02:00:47;;;;;;;;;;;;;;;-0.41;47.94;96806.22;5015176;28;19955;-72
2022/03/07 02:03:13;;;;;;;;;;;;;;;-0.44;49.10;96809.91;5013725;28;19964;-72
2022/03/07 02:05:40;;;;;;;;;;;;;;;-0.48;49.14;96813.72;5015010;28;19952;-72
2022/03/07 02:08:06;;;;;;;;;;;;;;;-0.51;49.44;96803.66;5014714;28;19979;-72
2022/03/07 02:10:32;;;;;;;;;;;;;;;-0.54;49.94;96806.53;5015208;28;20313;-73
2022/03/07 02:12:58;;;;;;;;;;;;;;;-0.55;49.54;96810.03;5014893;28;19994;-73
2022/03/07 02:15:24;;;;;;;;;;;;;;;-0.55;49.11;96802.31;5014708;28;20358;-73
2022/03/07 02:17:50;;;;;;;;;;;;;;;-0.56;48.69;96803.28;5015001;28;19965;-73
2022/03/07 02:20:16;;;;;;;;;;;;;;;-0.58;49.24;96810.34;5014358;28;19956;-73
2022/03/07 02:22:43;;;;;;;;;;;;;;;-0.58;49.51;96807.75;5014083;28;19961;-73
2022/03/07 02:25:09;;;;;;;;;;;;;;;-0.62;49.23;96801.25;5015008;28;19959;-73
2022/03/07 02:27:34;;;;;;;;;;;;;;;-0.61;49.59;96800.28;5014555;28;20344;-73
2022/03/07 02:30:03;;;;;;;;;;;;;;;-0.62;49.61;96794.34;5014385;28;19988;-73
2022/03/07 02:32:29;;;;;;;;;;;;;;;-0.65;49.15;96794.63;5013835;28;20407;-73
2022/03/07 02:34:54;;;;;;;;;;;;;;;-0.69;49.07;96795.06;5014256;28;19983;-72
2022/03/07 02:37:20;;;;;;;;;;;;;;;-0.70;49.46;96796.78;5014379;28;20446;-72
2022/03/07 02:39:46;;;;;;;;;;;;;;;-0.76;49.31;96794.78;5014746;28;19959;-72
2022/03/07 02:42:12;;;;;;;;;;;;;;;-0.83;50.62;96799.66;5014308;28;20409;-72
2022/03/07 02:44:38;;;;;;;;;;;;;;;-0.85;49.51;96795.59;5011836;28;20029;-72
2022/03/07 02:47:04;;;;;;;;;;;;;;;-0.86;49.74;96781.94;5000414;28;19974;-72
2022/03/07 02:49:30;;;;;;;;;;;;;;;-0.85;49.80;96780.16;5004659;28;19963;-72
2022/03/07 02:51:56;;;;;;;;;;;;;;;-0.87;50.26;96782.06;5002782;28;19956;-72
2022/03/07 02:54:22;;;;;;;;;;;;;;;-0.91;51.02;96772.97;5010016;28;20428;-72
2022/03/07 02:56:48;;;;;;;;;;;;;;;-0.95;50.53;96784.50;5006971;28;19958;-72
2022/03/07 02:59:14;;;;;;;;;;;;;;;-1.02;50.40;96785.06;5003182;28;20001;-72
2022/03/07 03:01:43;;;;;;;;;;;;;;;-1.06;50.48;96783.69;4980683;28;19961;-73
2022/03/07 03:04:09;;;;;;;;;;;;;;;-1.12;49.60;96786.81;5006146;28;19953;-72
2022/03/07 03:06:34;;;;;;;;;;;;;;;-1.13;50.51;96781.81;5008149;28;19958;-72
2022/03/07 03:09:00;;;;;;;;;;;;;;;-1.16;50.27;96782.09;5004239;28;19957;-72
2022/03/07 03:11:28;;;;;;;;;;;;;;;-1.22;50.37;96775.72;5003928;28;19956;-72
2022/03/07 03:13:54;;;;;;;;;;;;;;;-1.24;50.36;96780.19;5002279;28;19954;-72
2022/03/07 03:16:20;;;;;;;;;;;;;;;-1.27;50.05;96786.41;5003000;28;19961;-72
2022/03/07 03:18:46;;;;;;;;;;;;;;;-1.30;50.53;96780.72;5008222;28;19954;-73
2022/03/07 03:21:12;;;;;;;;;;;;;;;-1.35;50.48;96783.69;5006601;28;20068;-72
2022/03/07 03:23:37;;;;;;;;;;;;;;;-1.39;50.51;96786.69;4985284;28;20462;-72
2022/03/07 03:26:03;;;;;;;;;;;;;;;-1.44;50.55;96792.25;4980853;28;20396;-72
2022/03/07 03:28:29;;;;;;;;;;;;;;;-1.49;51.59;96787.50;5002890;28;20052;-72
2022/03/07 03:30:56;;;;;;;;;;;;;;;-1.50;50.63;96797.91;5001063;28;19963;-72
2022/03/07 03:33:22;;;;;;;;;;;;;;;-1.52;51.15;96799.81;5005843;28;19959;-72
2022/03/07 03:35:48;;;;;;;;;;;;;;;-1.55;50.40;96798.31;5007509;28;20394;-72
2022/03/07 03:38:14;;;;;;;;;;;;;;;-1.60;50.56;96799.66;5012692;28;19954;-72
2022/03/07 03:40:40;;;;;;;;;;;;;;;-1.64;50.09;96794.78;4984633;28;19951;-72
2022/03/07 03:43:05;;;;;;;;;;;;;;;-1.70;49.98;96790.19;5006987;28;19985;-72
2022/03/07 03:45:31;;;;;;;;;;;;;;;-1.75;50.98;96794.09;5004921;28;20028;-72
2022/03/07 03:47:58;;;;;;;;;;;;;;;-1.74;50.88;96800.84;5011129;28;20013;-72
2022/03/07 03:50:24;;;;;;;;;;;;;;;-1.76;51.65;96793.28;5004833;28;20359;-72
2022/03/07 03:52:49;;;;;;;;;;;;;;;-1.77;51.18;96801.13;5003117;28;19957;-71
2022/03/07 03:55:16;;;;;;;;;;;;;;;-1.81;50.93;96795.41;5013130;28;20050;-72
2022/03/07 03:57:43;;;;;;;;;;;;;;;-1.49;68.10;96809.81;5003694;28;19970;-72
2022/03/07 04:00:11;;;;;;;;;;;;;;;-0.97;61.36;96799.28;5005219;28;20404;-72
2022/03/07 04:02:37;;;;;;;;;;;;;;;-0.80;50.62;96803.72;5008564;28;19965;-72
2022/03/07 04:05:03;;;;;;;;;;;;;;;-0.92;49.93;96805.66;5008444;28;19964;-72
2022/03/07 04:07:29;;;;;;;;;;;;;;;-1.10;50.17;96804.72;5008187;28;19966;-72
2022/03/07 04:09:55;;;;;;;;;;;;;;;-1.30;49.66;96804.72;5003856;28;19957;-73
2022/03/07 04:12:21;;;;;;;;;;;;;;;-1.50;50.03;96811.56;5007825;28;20005;-71
2022/03/07 04:14:46;;;;;;;;;;;;;;;-1.64;49.99;96811.97;5001874;28;19959;-71
2022/03/07 04:17:12;;;;;;;;;;;;;;;-1.73;51.12;96807.63;5009727;28;19959;-71
2022/03/07 04:19:38;;;;;;;;;;;;;;;-1.81;50.22;96812.59;5010984;28;19959;-72
2022/03/07 04:22:04;;;;;;;;;;;;;;;-1.86;50.55;96805.28;5007477;28;19964;-72
2022/03/07 04:24:30;;;;;;;;;;;;;;;-1.89;50.54;96810.69;5004362;28;20325;-72
2022/03/07 04:26:57;;;;;;;;;;;;;;;-1.91;52.75;96804.84;5006906;28;19972;-71
2022/03/07 04:29:23;;;;;;;;;;;;;;;-1.79;51.78;96808.16;5007186;28;20404;-71
2022/03/07 04:31:48;;;;;;;;;;;;;;;-1.77;51.26;96812.19;5011047;28;19962;-71
2022/03/07 04:34:14;;;;;;;;;;;;;;;-1.78;50.51;96810.59;5006818;28;19951;-71
2022/03/07 04:36:41;;;;;;;;;;;;;;;-1.81;50.94;96810.03;4999936;28;19954;-71
2022/03/07 04:39:08;;;;;;;;;;;;;;;-1.82;51.05;96816.94;5010054;28;20312;-72
2022/03/07 04:41:34;;;;;;;;;;;;;;;-1.87;51.04;96812.19;5011082;28;19960;-72
2022/03/07 04:44:01;;;;;;;;;;;;;;;-1.90;51.15;96822.72;5000613;28;19947;-72
2022/03/07 04:46:27;;;;;;;;;;;;;;;-1.92;50.90;96811.75;5000481;28;20450;-72
2022/03/07 04:48:53;;;;;;;;;;;;;;;-1.94;51.52;96820.56;5010135;28;20019;-71
2022/03/07 04:51:19;;;;;;;;;;;;;;;-2.00;50.65;96816.72;5005025;28;19966;-71
2022/03/07 04:53:45;;;;;;;;;;;;;;;-2.08;51.25;96817.41;5006059;28;20359;-72
2022/03/07 04:56:11;;;;;;;;;;;;;;;-2.10;51.02;96814.16;5011610;28;20379;-71
2022/03/07 04:58:37;;;;;;;;;;;;;;;-2.10;51.24;96823.59;5008348;28;19955;-72
2022/03/07 05:01:03;;;;;;;;;;;;;;;-2.15;51.44;96821.41;5006964;28;19984;-72
2022/03/07 05:03:29;;;;;;;;;;;;;;;-2.18;51.53;96828.56;5002168;28;20018;-71
2022/03/07 05:05:55;;;;;;;;;;;;;;;-2.23;51.19;96830.72;5005922;28;19957;-71
2022/03/07 05:08:21;;;;;;;;;;;;;;;-2.29;51.58;96830.28;5008130;28;20444;-71
2022/03/07 05:10:46;;;;;;;;;;;;;;;-2.32;51.91;96829.72;5010646;28;19983;-72
2022/03/07 05:13:12;;;;;;;;;;;;;;;-2.35;52.17;96828.22;5004731;28;20418;-71
2022/03/07 05:15:38;;;;;;;;;;;;;;;-2.40;52.50;96835.50;5003184;28;19996;-71
2022/03/07 05:18:05;;;;;;;;;;;;;;;-2.40;52.07;96832.13;5001430;28;20316;-71
2022/03/07 05:20:31;;;;;;;;;;;;;;;-2.39;52.22;96833.72;5007186;28;19962;-71
2022/03/07 05:22:57;;;;;;;;;;;;;;;-2.38;52.76;96830.25;5007887;28;19974;-71
2022/03/07 05:25:23;;;;;;;;;;;;;;;-2.36;52.07;96833.50;5003420;28;19954;-72
2022/03/07 05:27:49;;;;;;;;;;;;;;;-2.38;52.58;96843.06;5006696;28;19970;-72
2022/03/07 05:30:16;;;;;;;;;;;;;;;-2.42;52.82;96845.06;4987283;28;19963;-71
2022/03/07 05:32:43;;;;;;;;;;;;;;;-2.44;52.60;96846.97;5005256;28;19957;-73
2022/03/07 05:35:10;;;;;;;;;;;;;;;-2.48;52.29;96846.41;5004094;28;19955;-71
2022/03/07 05:37:36;;;;;;;;;;;;;;;-2.47;52.29;96848.03;5003979;28;19956;-71
2022/03/07 05:40:03;;;;;;;;;;;;;;;-2.46;52.71;96856.53;5002736;28;19957;-71
2022/03/07 05:42:29;;;;;;;;;;;;;;;-2.45;52.27;96866.69;5011483;28;19944;-71
2022/03/07 05:44:55;;;;;;;;;;;;;;;-2.48;52.87;96858.41;5007063;28;20025;-71
2022/03/07 05:47:21;;;;;;;;;;;;;;;-2.49;55.82;96855.03;5002656;28;20079;-71
2022/03/07 05:49:46;;;;;;;;;;;;;;;-2.05;57.15;96862.56;5004886;28;20084;-72
2022/03/07 05:52:12;;;;;;;;;;;;;;;-1.54;75.38;96866.00;5010276;28;20048;-72
2022/03/07 05:54:38;;;;;;;;;;;;;;;-1.23;53.07;96859.00;5003516;28;19998;-72
2022/03/07 05:57:04;;;;;;;;;;;;;;;-1.32;52.07;96857.25;5000670;28;20009;-72
2022/03/07 05:59:30;;;;;;;;;;;;;;;-1.52;51.80;96857.19;5007132;28;19957;-71
2022/03/07 06:01:56;;;;;;;;;;;;;;;-1.73;51.50;96861.63;5009549;28;20352;-71
2022/03/07 06:04:22;;;;;;;;;;;;;;;-1.93;52.06;96861.56;5002231;28;20344;-71
2022/03/07 06:06:48;;;;;;;;;;;;;;;-2.06;52.08;96863.50;5004611;28;19961;-72
2022/03/07 06:09:14;;;;;;;;;;;;;;;-2.18;52.69;96864.53;5002214;28;20032;-72
2022/03/07 06:11:40;;;;;;;;;;;;;;;-2.29;52.61;96871.41;4993243;28;19960;-71
2022/03/07 06:14:05;;;;;;;;;;;;;;;-2.36;53.15;96861.75;5005774;28;19961;-72
2022/03/07 06:16:31;;;;;;;;;;;;;;;-2.42;53.39;96868.19;4982368;28;20361;-71
2022/03/07 06:18:57;;;;;;;;;;;;;;;-2.41;53.78;96871.59;5003559;28;20391;-71
2022/03/07 06:21:23;;;;;;;;;;;;;;;-1.74;71.66;96871.09;5006419;28;20006;-71
2022/03/07 06:23:49;;;;;;;;;;;;;;;-1.41;54.13;96873.47;5006954;28;19965;-72
2022/03/07 06:26:15;;;;;;;;;;;;;;;-1.45;52.60;96873.75;4999281;28;19962;-72
2022/03/07 06:28:40;;;;;;;;;;;;;;;-1.45;52.47;96870.34;5007958;28;19963;-72
2022/03/07 06:31:06;;;;;;;;;;;;;;;-1.18;51.76;96877.44;5004786;28;19950;-72
2022/03/07 06:33:32;;;;;;;;;;;;;;;-0.87;51.18;96869.59;5006506;28;20004;-72
2022/03/07 06:35:58;;;;;;;;;;;;;;;-0.48;50.71;96867.00;5004404;28;20001;-72
2022/03/07 06:38:24;;;;;;;;;;;;;;;-0.10;49.81;96870.44;4998152;28;19959;-72
2022/03/07 06:40:50;;;;;;;;;;;;;;;0.20;49.08;96870.19;5003192;28;19955;-72
2022/03/07 06:43:16;;;;;;;;;;;;;;;0.51;48.62;96875.06;5009869;28;19955;-72
2022/03/07 06:45:42;;;;;;;;;;;;;;;0.72;47.79;96874.81;5004603;28;20001;-72
2022/03/07 06:48:08;;;;;;;;;;;;;;;0.92;47.66;96883.22;5005227;28;19966;-72
2022/03/07 06:50:34;;;;;;;;;;;;;;;1.16;46.95;96881.88;5004323;28;19956;-72
2022/03/07 06:53:00;;;;;;;;;;;;;;;1.35;46.94;96879.13;5001651;28;20017;-72
2022/03/07 06:55:26;;;;;;;;;;;;;;;1.48;46.45;96877.91;5004620;28;19963;-72
2022/03/07 06:57:52;;;;;;;;;;;;;;;1.57;45.82;96879.59;5003782;28;19958;-72
2022/03/07 07:00:18;;;;;;;;;;;;;;;1.68;45.89;96881.97;5004395;28;20000;-72
2022/03/07 07:02:45;;;;;;;;;;;;;;;1.80;45.30;96878.13;5000422;28;20009;-73
2022/03/07 07:05:11;;;;;;;;;;;;;;;1.91;45.64;96881.44;5002429;28;19963;-72
2022/03/07 07:07:37;;;;;;;;;;;;;;;2.02;45.14;96891.53;5008274;28;19971;-72
2022/03/07 07:10:04;;;;;;;;;;;;;;;2.17;45.16;96884.03;4985240;28;19959;-72
2022/03/07 07:12:30;;;;;;;;;;;;;;;2.28;44.99;96882.94;5004923;28;19963;-72
2022/03/07 07:14:56;;;;;;;;;;;;;;;2.48;44.77;96884.31;5005879;28;19958;-72
2022/03/07 07:17:22;;;;;;;;;;;;;;;3.20;59.73;96891.63;5007576;28;19959;-74
2022/03/07 07:19:48;;;;;;;;;;;;;;;4.42;53.46;96882.88;5000339;28;20003;-73
2022/03/07 07:22:14;;;;;;;;;;;;;;;5.39;46.62;96887.69;5003404;28;19959;-73
2022/03/07 07:24:40;;;;;;;;;;;;;;;6.26;45.26;96884.66;5001645;28;20330;-75
2022/03/07 07:27:06;;;;;;;;;;;;;;;7.02;43.41;96888.81;5004079;28;19965;-74
2022/03/07 07:29:32;;;;;;;;;;;;;;;7.39;40.58;96877.34;5003207;28;19980;-73
2022/03/07 07:31:58;;;;;;;;;;;;;;;7.09;39.20;96885.25;5002961;28;19960;-72
2022/03/07 07:34:24;;;;;;;;;;;;;;;6.23;38.31;96884.22;4998375;28;19955;-72
2022/03/07 07:36:50;;;;;;;;;;;;;;;5.57;39.87;96886.59;5003287;28;20006;-72
2022/03/07 07:39:16;;;;;;;;;;;;;;;5.22;40.30;96896.59;5004103;28;19951;-72
2022/03/07 07:41:42;;;;;;;;;;;;;;;4.77;40.76;96896.38;5003538;28;19955;-72
2022/03/07 07:44:08;;;;;;;;;;;;;;;4.21;40.64;96898.19;5008822;28;19984;-72
2022/03/07 07:46:34;;;;;;;;;;;;;;;3.61;41.02;96904.59;5000918;28;19963;-73
2022/03/07 07:49:00;;;;;;;;;;;;;;;2.93;41.16;96916.81;4997666;28;20430;-72
2022/03/07 07:51:26;;;;;;;;;;;;;;;2.66;42.12;96915.28;5003204;28;19981;-73
2022/03/07 07:53:52;;;;;;;;;;;;;;;2.52;43.07;96916.69;5006658;28;20036;-73
2022/03/07 07:56:18;;;;;;;;;;;;;;;2.54;43.30;96919.13;5003462;28;20333;-72
2022/03/07 07:58:43;;;;;;;;;;;;;;;2.50;43.15;96928.16;4986712;28;19961;-72
2022/03/07 08:01:09;;;;;;;;;;;;;;;2.56;42.63;96927.53;4986887;28;20053;-72
2022/03/07 08:03:35;;;;;;;;;;;;;;;2.53;43.16;96920.91;4999239;28;19965;-72
2022/03/07 08:06:01;;;;;;;;;;;;;;;2.66;43.38;96927.44;5005081;28;19947;-72
2022/03/07 08:08:27;;;;;;;;;;;;;;;2.71;42.74;96927.75;5005383;28;20355;-72
2022/03/07 08:10:53;;;;;;;;;;;;;;;2.55;42.84;96926.72;4999744;28;19974;-72
2022/03/07 08:13:19;;;;;;;;;;;;;;;2.58;43.52;96936.78;5006967;28;20010;-71
2022/03/07 08:15:45;;;;;;;;;;;;;;;2.75;43.60;96929.06;5006367;28;19965;-72
2022/03/07 08:18:11;;;;;;;;;;;;;;;2.70;43.29;96929.53;5003698;28;20340;-72
2022/03/07 08:20:37;;;;;;;;;;;;;;;2.66;43.23;96923.06;5005234;28;19956;-72
2022/03/07 08:23:04;;;;;;;;;;;;;;;2.84;43.43;96934.13;5009558;28;19994;-72
2022/03/07 08:25:30;;;;;;;;;;;;;;;2.94;42.68;96926.25;5008586;28;19965;-73
2022/03/07 08:27:56;;;;;;;;;;;;;;;3.05;42.42;96932.91;5000206;28;19972;-72
2022/03/07 08:30:23;;;;;;;;;;;;;;;2.80;42.43;96934.59;5016546;28;19959;-74
2022/03/07 08:32:50;;;;;;;;;;;;;;;2.54;42.70;96939.81;5007852;28;19979;-74
2022/03/07 08:35:16;;;;;;;;;;;;;;;2.56;42.44;96949.09;5007070;28;19964;-74
2022/03/07 08:37:42;;;;;;;;;;;;;;;2.76;42.93;96947.03;5009400;28;19960;-74
2022/03/07 08:40:09;;;;;;;;;;;;;;;2.87;42.43;96948.53;4998683;28;20429;-74
2022/03/07 08:42:35;;;;;;;;;;;;;;;2.61;42.08;96948.63;5011523;28;19945;-74
2022/03/07 08:45:01;;;;;;;;;;;;;;;2.50;42.41;96947.13;4963034;28;19978;-74
2022/03/07 08:47:27;;;;;;;;;;;;;;;2.32;42.46;96947.16;4996794;28;20012;-73
2022/03/07 08:49:53;;;;;;;;;;;;;;;2.47;42.26;96954.38;4996631;28;20095;-73
2022/03/07 08:52:19;;;;;;;;;;;;;;;2.51;42.38;96946.13;4979589;28;19964;-74
2022/03/07 08:54:46;;;;;;;;;;;;;;;2.74;42.64;96941.22;4996731;28;19957;-74
2022/03/07 08:57:13;;;;;;;;;;;;;;;2.92;42.15;96948.91;4996669;28;19965;-74
2022/03/07 08:59:39;;;;;;;;;;;;;;;2.88;41.12;96962.28;4996519;28;19963;-73
2022/03/07 09:02:05;;;;;;;;;;;;;;;2.83;42.20;96957.59;4996610;28;19957;-74
2022/03/07 09:04:31;;;;;;;;;;;;;;;2.75;40.66;96960.97;4996537;28;19966;-74
2022/03/07 09:06:57;;;;;;;;;;;;;;;2.34;41.06;96978.06;4996591;28;19956;-74
2022/03/07 09:09:22;;;;;;;;;;;;;;;2.08;41.70;96967.72;4996382;28;20457;-73
2022/03/07 09:11:49;;;;;;;;;;;;;;;1.91;41.99;96972.78;4996148;28;20035;-72
2022/03/07 09:14:15;;;;;;;;;;;;;;;1.86;42.02;96969.03;4978875;28;20410;-74
2022/03/07 09:16:41;;;;;;;;;;;;;;;1.93;42.55;96968.28;4996326;28;19952;-73
2022/03/07 09:19:07;;;;;;;;;;;;;;;2.09;42.19;96961.59;4996522;28;20375;-74
2022/03/07 09:21:33;;;;;;;;;;;;;;;2.15;41.02;96961.78;4996152;28;19955;-73
2022/03/07 09:23:59;;;;;;;;;;;;;;;2.26;42.28;96965.88;4995844;28;19975;-73
2022/03/07 09:26:25;;;;;;;;;;;;;;;2.16;41.75;96968.59;4996303;28;20397;-73
2022/03/07 09:28:51;;;;;;;;;;;;;;;1.91;41.34;96966.78;4995845;28;20012;-73
2022/03/07 09:31:17;;;;;;;;;;;;;;;1.90;40.91;96957.41;4995567;28;19956;-74
2022/03/07 09:33:43;;;;;;;;;;;;;;;2.00;41.67;96966.69;4995893;28;19955;-73
2022/03/07 09:36:09;;;;;;;;;;;;;;;2.23;43.02;96964.44;4995878;28;19962;-73
2022/03/07 09:38:36;;;;;;;;;;;;;;;2.62;42.14;96960.56;4996028;28;20025;-72
2022/03/07 09:41:03;;;;;;;;;;;;;;;2.88;41.50;96965.72;4995226;28;19952;-72
2022/03/07 09:43:29;;;;;;;;;;;;;;;3.00;41.17;96964.47;4995645;28;19952;-74
2022/03/07 09:45:56;;;;;;;;;;;;;;;3.10;41.12;96951.38;5005289;28;20442;-73
2022/03/07 09:48:23;;;;;;;;;;;;;;;3.15;40.96;96966.44;5005483;28;19980;-74
2022/03/07 09:50:49;;;;;;;;;;;;;;;3.04;39.71;96959.75;5008078;28;19953;-73
2022/03/07 09:53:17;;;;;;;;;;;;;;;2.67;39.92;96971.31;5002306;28;19956;-74
2022/03/07 09:55:44;;;;;;;;;;;;;;;2.51;40.74;96976.41;4986540;28;19964;-75
2022/03/07 09:58:10;;;;;;;;;;;;;;;2.28;40.37;96970.91;5006267;28;20430;-74
2022/03/07 10:00:46;;;;;;;;;;;;;;;2.27;40.07;96971.88;5007383;28;20055;-74
2022/03/07 10:03:18;;;;;;;;;;;;;;;2.31;40.18;96962.84;4991628;28;19954;-74
2022/03/07 10:05:45;;;;;;;;;;;;;;;2.53;40.87;96983.03;5004240;28;20326;-74
2022/03/07 10:08:20;;;;;;;;;;;;;;;2.68;41.08;96974.69;5002111;28;19968;-74
2022/03/07 10:10:46;;;;;;;;;;;;;;;2.85;40.52;96971.19;5003436;28;19960;-72
2022/03/07 10:13:13;;;;;;;;;;;;;;;2.77;40.14;96977.19;5004791;28;19956;-75
2022/03/07 10:15:40;;;;;;;;;;;;;;;2.49;39.85;96980.91;5008143;28;20324;-74
2022/03/07 10:18:10;;;;;;;;;;;;;;;2.45;40.05;96977.81;5007346;28;19950;-75
2022/03/07 10:20:35;;;;;;;;;;;;;;;2.31;40.01;96983.53;5003302;28;20356;-74
2022/03/07 10:23:01;;;;;;;;;;;;;;;2.16;40.25;96985.88;5003702;28;19952;-75
2022/03/07 10:25:28;;;;;;;;;;;;;;;2.39;40.86;96976.66;5014599;28;20259;-74
2022/03/07 10:27:55;;;;;;;;;;;;;;;2.58;40.54;96983.41;4999661;28;20607;-74
2022/03/07 10:30:23;;;;;;;;;;;;;;;2.69;41.00;96977.13;5007717;28;19956;-74
2022/03/07 10:32:59;;;;;;;;;;;;;;;2.94;40.31;96964.25;5006694;28;19961;-74
2022/03/07 10:35:25;;;;;;;;;;;;;;;3.21;40.39;96979.59;5001355;28;19957;-73
2022/03/07 10:37:54;;;;;;;;;;;;;;;3.27;40.23;96969.56;5005287;28;19988;-74
2022/03/07 10:40:21;;;;;;;;;;;;;;;3.41;39.69;96974.13;5003952;28;19957;-74
2022/03/07 10:42:48;;;;;;;;;;;;;;;3.62;39.16;96981.44;5004203;28;19956;-74
2022/03/07 10:45:15;;;;;;;;;;;;;;;3.70;39.06;96984.03;4983673;28;19983;-74
2022/03/07 10:47:41;;;;;;;;;;;;;;;3.80;39.26;96986.47;4994659;28;20316;-74
2022/03/07 10:50:07;;;;;;;;;;;;;;;3.66;38.95;96978.38;4994403;28;20459;-75
2022/03/07 10:52:34;;;;;;;;;;;;;;;3.54;39.09;96984.03;4994655;28;20017;-74
2022/03/07 10:55:00;;;;;;;;;;;;;;;3.37;39.01;96978.81;4994663;28;19963;-74
2022/03/07 10:57:26;;;;;;;;;;;;;;;3.02;39.15;96970.31;4994531;28;20006;-75
2022/03/07 10:59:52;;;;;;;;;;;;;;;2.69;39.74;96971.97;4994401;28;19957;-74
2022/03/07 11:02:18;;;;;;;;;;;;;;;2.47;39.84;96977.66;4994424;28;19997;-75
2022/03/07 11:04:45;;;;;;;;;;;;;;;2.23;40.58;96973.97;4994508;28;19953;-74
2022/03/07 11:07:12;;;;;;;;;;;;;;;2.24;40.29;96971.22;4994409;28;19965;-74
2022/03/07 11:09:39;;;;;;;;;;;;;;;2.19;40.41;96976.03;4994301;28;19976;-74
2022/03/07 11:12:06;;;;;;;;;;;;;;;2.13;40.69;96966.31;4994164;28;20349;-76
2022/03/07 11:14:32;;;;;;;;;;;;;;;2.26;41.01;96960.72;4994123;28;19957;-74
2022/03/07 11:16:58;;;;;;;;;;;;;;;2.71;41.13;96961.44;4994112;28;19953;-75
2022/03/07 11:19:25;;;;;;;;;;;;;;;3.16;40.74;96950.72;4994610;28;20170;-74
2022/03/07 11:21:52;;;;;;;;;;;;;;;3.25;40.29;96954.16;4994002;28;19953;-74
2022/03/07 11:24:19;;;;;;;;;;;;;;;3.20;40.21;96944.25;4993772;28;19957;-74
2022/03/07 11:26:46;;;;;;;;;;;;;;;3.16;40.26;96957.69;4993636;28;19976;-74
2022/03/07 11:29:11;;;;;;;;;;;;;;;3.39;40.24;96943.16;4993910;28;20324;-75
2022/03/07 11:31:39;;;;;;;;;;;;;;;3.66;39.96;96936.84;4976528;28;20000;-75
2022/03/07 11:34:07;;;;;;;;;;;;;;;3.84;39.88;96933.28;4994102;28;19958;-75
2022/03/07 11:36:36;;;;;;;;;;;;;;;3.88;39.85;96939.78;4994055;28;19957;-74
2022/03/07 11:39:03;;;;;;;;;;;;;;;3.63;38.97;96937.19;4994551;28;19954;-74
2022/03/07 11:41:30;;;;;;;;;;;;;;;3.69;39.38;96940.91;4993841;28;19951;-74
2022/03/07 11:44:00;;;;;;;;;;;;;;;3.91;39.17;96943.84;4995907;28;19961;-74
2022/03/07 11:46:30;;;;;;;;;;;;;;;3.75;38.50;96937.66;5001035;28;19961;-75
2022/03/07 11:48:56;;;;;;;;;;;;;;;3.26;38.77;96935.06;5002346;28;19984;-75
2022/03/07 11:51:25;;;;;;;;;;;;;;;3.24;39.15;96934.41;5006944;28;20269;-74
2022/03/07 11:53:52;;;;;;;;;;;;;;;3.28;38.98;96935.69;5004973;28;19950;-74
2022/03/07 11:56:19;;;;;;;;;;;;;;;3.46;39.41;96940.72;5006116;28;19966;-74
2022/03/07 11:58:48;;;;;;;;;;;;;;;3.70;39.27;96929.56;5006602;28;19962;-74
2022/03/07 12:01:14;;;;;;;;;;;;;;;3.73;38.24;96931.81;5008697;28;20341;-74
2022/03/07 12:03:40;;;;;;;;;;;;;;;3.80;38.49;96929.38;5009263;28;19958;-72
2022/03/07 12:06:09;;;;;;;;;;;;;;;3.76;37.79;96931.53;5007896;28;20434;-73
2022/03/07 12:08:51;;;;;;;;;;;;;;;3.58;38.29;96918.69;5003618;28;19967;-72
2022/03/07 12:11:32;;;;;;;;;;;;;;;3.82;39.21;96924.84;5007769;28;19962;-73
2022/03/07 12:14:02;;;;;;;;;;;;;;;4.21;39.41;96924.16;5007486;28;19951;-72
2022/03/07 12:16:33;;;;;;;;;;;;;;;4.04;37.83;96920.78;5006630;28;19949;-74
2022/03/07 12:19:13;;;;;;;;;;;;;;;3.89;38.27;96920.66;5004804;28;19961;-74
2022/03/07 12:21:41;;;;;;;;;;;;;;;3.94;38.17;96915.75;5002696;28;19959;-74
2022/03/07 12:24:08;;;;;;;;;;;;;;;4.05;37.62;96919.78;5006886;28;19953;-74
2022/03/07 12:26:44;;;;;;;;;;;;;;;4.19;37.40;96910.53;5007171;28;20325;-74
2022/03/07 12:29:10;;;;;;;;;;;;;;;4.14;37.64;96915.44;5006327;28;19968;-74
2022/03/07 12:31:36;;;;;;;;;;;;;;;4.18;36.98;96917.53;4992738;28;19952;-75
2022/03/07 12:34:04;;;;;;;;;;;;;;;4.17;36.71;96918.47;5003228;28;20296;-76
2022/03/07 12:36:30;;;;;;;;;;;;;;;4.14;37.65;96902.44;5005309;28;20416;-74
2022/03/07 12:38:57;;;;;;;;;;;;;;;4.14;37.11;96907.63;5008622;28;19953;-74
2022/03/07 12:41:33;;;;;;;;;;;;;;;3.76;37.20;96915.97;5005840;28;19951;-74
2022/03/07 12:43:59;;;;;;;;;;;;;;;3.60;37.51;96905.59;5008169;28;19958;-74
2022/03/07 12:46:26;;;;;;;;;;;;;;;3.77;38.32;96898.59;5002881;28;20308;-74
2022/03/07 12:48:53;;;;;;;;;;;;;;;4.10;38.30;96891.56;5006463;28;19977;-74